createdAt,value
2022-12-31T00:00:09.666Z,91.00
2022-12-31T00:03:01.490Z,59.30
2022-12-31T00:05:54.334Z,62.70
2022-12-31T00:08:47.342Z,53.20
2022-12-31T00:11:40.300Z,70.30
2022-12-31T00:14:32.465Z,67.90
2022-12-31T00:17:24.316Z,55.90
2022-12-31T00:20:17.635Z,56.50
2022-12-31T00:23:11.962Z,59.50
2022-12-31T00:26:12.298Z,60.60
2022-12-31T00:29:05.811Z,70.50
2022-12-31T00:31:57.447Z,66.50
2022-12-31T00:34:50.739Z,67.60
2022-12-31T00:37:42.500Z,67.00
2022-12-31T00:40:34.544Z,71.50
2022-12-31T00:43:27.181Z,69.10
2022-12-31T00:46:21.049Z,64.00
2022-12-31T00:49:12.454Z,73.70
2022-12-31T00:52:06.139Z,70.30
2022-12-31T00:54:57.923Z,66.60
2022-12-31T00:57:51.025Z,67.50
2022-12-31T01:00:44.270Z,66.80
2022-12-31T01:03:37.888Z,69.00
2022-12-31T01:06:34.456Z,62.60
2022-12-31T01:09:27.525Z,63.40
2022-12-31T01:12:19.761Z,61.80
2022-12-31T01:15:12.289Z,71.60
2022-12-31T01:18:09.760Z,68.00
2022-12-31T01:21:05.880Z,74.20
2022-12-31T01:24:00.037Z,78.50
2022-12-31T01:26:51.827Z,80.50
2022-12-31T01:29:43.835Z,83.00
2022-12-31T01:32:36.808Z,80.40
2022-12-31T01:35:29.606Z,71.50
2022-12-31T01:38:21.739Z,69.50
2022-12-31T01:41:18.415Z,74.00
2022-12-31T01:44:14.734Z,62.10
2022-12-31T01:47:15.281Z,61.00
2022-12-31T01:50:18.677Z,58.50
2022-12-31T01:53:12.095Z,57.20
2022-12-31T01:56:07.442Z,62.50
2022-12-31T01:59:00.290Z,60.00
2022-12-31T02:01:56.513Z,60.10
2022-12-31T02:04:55.499Z,58.80
2022-12-31T02:07:51.536Z,69.10
2022-12-31T02:10:44.254Z,64.20
2022-12-31T02:13:36.660Z,62.10
2022-12-31T02:17:04.233Z,55.70
2022-12-31T02:20:02.262Z,66.50
2022-12-31T02:23:27.175Z,55.00
2022-12-31T02:26:55.245Z,61.50
2022-12-31T02:30:04.514Z,51.90
2022-12-31T02:33:20.889Z,58.30
2022-12-31T02:36:22.701Z,56.20
2022-12-31T02:39:15.486Z,58.90
2022-12-31T02:42:10.137Z,57.90
2022-12-31T02:45:01.600Z,56.00
2022-12-31T02:48:01.637Z,58.00
2022-12-31T02:51:19.448Z,62.90
2022-12-31T02:55:03.477Z,60.70
2022-12-31T02:58:11.351Z,61.30
2022-12-31T03:04:40.075Z,61.00
2022-12-31T03:07:14.379Z,50.40
2022-12-31T03:09:42.476Z,53.90
2022-12-31T03:12:31.896Z,56.60
2022-12-31T03:15:00.630Z,52.50
2022-12-31T03:17:28.678Z,57.20
2022-12-31T03:20:15.280Z,57.10
2022-12-31T03:22:44.115Z,55.00
2022-12-31T03:25:38.116Z,58.00
2022-12-31T03:28:12.753Z,54.40
2022-12-31T03:30:43.333Z,64.00
2022-12-31T03:33:11.498Z,57.60
2022-12-31T03:35:41.604Z,68.00
2022-12-31T03:38:09.712Z,62.00
2022-12-31T03:40:41.177Z,65.70
2022-12-31T03:43:09.424Z,65.20
2022-12-31T03:45:38.196Z,67.10
2022-12-31T03:48:07.781Z,74.30
2022-12-31T03:50:36.605Z,75.50
2022-12-31T03:53:05.287Z,79.80
2022-12-31T03:55:33.269Z,71.00
2022-12-31T03:58:01.303Z,78.10
2022-12-31T04:00:29.553Z,74.30
2022-12-31T04:02:57.671Z,70.90
2022-12-31T04:05:26.332Z,72.80
2022-12-31T04:07:55.857Z,63.50
2022-12-31T04:10:23.909Z,60.30
2022-12-31T04:12:52.064Z,56.50
2022-12-31T04:15:21.229Z,58.30
2022-12-31T04:17:49.586Z,47.50
2022-12-31T04:20:17.646Z,54.10
2022-12-31T04:22:45.607Z,56.70
2022-12-31T04:25:13.722Z,58.00
2022-12-31T04:27:45.497Z,62.30
2022-12-31T04:30:14.358Z,68.90
2022-12-31T04:32:42.520Z,67.70
2022-12-31T04:35:11.584Z,55.80
2022-12-31T04:37:39.577Z,58.80
2022-12-31T04:40:08.899Z,54.70
2022-12-31T04:42:37.605Z,63.20
2022-12-31T04:45:06.397Z,55.60
2022-12-31T04:47:34.326Z,59.70
2022-12-31T04:50:02.295Z,53.80
2022-12-31T04:52:30.283Z,53.10
2022-12-31T04:54:58.276Z,51.50
2022-12-31T04:57:26.206Z,52.70
2022-12-31T04:59:54.502Z,52.20
2022-12-31T05:02:22.607Z,53.30
2022-12-31T05:04:50.777Z,51.70
2022-12-31T05:07:19.088Z,53.20
2022-12-31T05:09:46.945Z,54.20
2022-12-31T05:12:14.930Z,53.80
2022-12-31T05:14:42.831Z,56.70
2022-12-31T05:17:10.868Z,53.70
2022-12-31T05:19:39.680Z,54.90
2022-12-31T05:22:26.184Z,49.80
2022-12-31T05:24:54.128Z,57.00
2022-12-31T05:27:22.877Z,57.60
2022-12-31T05:29:51.164Z,59.70
2022-12-31T05:32:19.260Z,56.80
2022-12-31T05:34:47.255Z,58.20
2022-12-31T05:37:15.257Z,60.10
2022-12-31T05:39:43.147Z,64.00
2022-12-31T05:42:11.123Z,65.00
2022-12-31T05:44:39.079Z,63.60
2022-12-31T05:47:07.057Z,72.70
2022-12-31T05:49:35.079Z,68.50
2022-12-31T05:52:02.982Z,63.90
2022-12-31T05:54:30.954Z,65.50
2022-12-31T05:56:59.037Z,74.20
2022-12-31T05:59:27.023Z,70.50
2022-12-31T06:01:55.041Z,73.00
2022-12-31T06:04:23.341Z,71.00
2022-12-31T06:06:51.411Z,67.50
2022-12-31T06:09:20.092Z,71.90
2022-12-31T06:11:48.509Z,69.10
2022-12-31T06:14:16.855Z,73.90
2022-12-31T06:16:44.783Z,74.60
2022-12-31T06:19:12.723Z,67.00
2022-12-31T06:21:40.683Z,76.90
2022-12-31T06:24:08.732Z,78.40
2022-12-31T06:26:36.925Z,79.70
2022-12-31T06:29:04.936Z,70.80
2022-12-31T06:31:33.573Z,75.10
2022-12-31T06:34:01.519Z,71.70
2022-12-31T06:36:29.466Z,70.10
2022-12-31T06:38:57.443Z,70.20
2022-12-31T06:41:25.401Z,68.90
2022-12-31T06:43:53.336Z,68.70
2022-12-31T06:46:21.380Z,67.70
2022-12-31T06:48:49.327Z,66.20
2022-12-31T06:51:19.825Z,61.50
2022-12-31T06:53:50.275Z,62.30
2022-12-31T06:56:33.883Z,63.40
2022-12-31T06:59:05.077Z,60.90
2022-12-31T07:02:01.115Z,59.00
2022-12-31T07:04:35.594Z,61.50
2022-12-31T07:07:33.107Z,56.10
2022-12-31T07:10:16.143Z,62.00
2022-12-31T07:13:12.025Z,64.20
2022-12-31T07:16:01.903Z,56.90
2022-12-31T07:19:11.938Z,55.40
2022-12-31T07:21:41.635Z,59.10
2022-12-31T07:24:10.942Z,60.20
2022-12-31T07:26:57.837Z,66.50
2022-12-31T07:29:47.021Z,57.60
2022-12-31T07:32:42.818Z,56.90
2022-12-31T07:35:16.947Z,64.80
2022-12-31T07:38:06.270Z,60.00
2022-12-31T07:40:57.953Z,64.80
2022-12-31T07:43:35.744Z,62.30
2022-12-31T07:46:17.874Z,63.80
2022-12-31T07:48:46.087Z,58.50
2022-12-31T07:51:14.378Z,64.60
2022-12-31T07:53:42.253Z,62.10
2022-12-31T07:56:10.752Z,64.70
2022-12-31T07:58:54.060Z,64.10
2022-12-31T08:01:39.709Z,72.00
2022-12-31T08:04:29.241Z,67.90
2022-12-31T08:07:25.233Z,74.90
2022-12-31T08:10:05.780Z,77.60
2022-12-31T08:12:36.218Z,67.60
2022-12-31T08:15:13.406Z,65.20
2022-12-31T08:17:41.866Z,59.70
2022-12-31T08:20:17.015Z,68.80
2022-12-31T08:23:03.828Z,70.60
2022-12-31T08:25:59.554Z,71.00
2022-12-31T08:28:50.747Z,77.10
2022-12-31T08:31:32.751Z,73.20
2022-12-31T08:34:32.737Z,80.90
2022-12-31T08:37:13.452Z,73.40
2022-12-31T08:39:52.287Z,72.00
2022-12-31T08:42:30.736Z,76.30
2022-12-31T08:45:11.790Z,74.50
2022-12-31T08:47:57.968Z,72.00
2022-12-31T08:50:28.568Z,73.50
2022-12-31T08:53:00.928Z,76.60
2022-12-31T08:55:29.338Z,71.90
2022-12-31T08:58:18.627Z,77.70
2022-12-31T09:00:53.034Z,74.60
2022-12-31T09:03:42.982Z,68.10
2022-12-31T09:06:27.408Z,74.10
2022-12-31T09:09:20.296Z,74.70
2022-12-31T09:11:57.693Z,75.50
2022-12-31T09:14:48.622Z,74.10
2022-12-31T09:17:36.121Z,80.50
2022-12-31T09:20:05.869Z,73.00
2022-12-31T09:22:33.971Z,77.50
2022-12-31T09:25:02.127Z,75.40
2022-12-31T09:27:44.155Z,76.70
2022-12-31T09:30:16.329Z,75.50
2022-12-31T09:33:00.358Z,77.30
2022-12-31T09:35:45.348Z,73.00
2022-12-31T09:38:31.687Z,72.70
2022-12-31T09:41:12.893Z,72.90
2022-12-31T09:44:06.003Z,72.70
2022-12-31T09:47:09.262Z,74.30
2022-12-31T09:50:05.450Z,80.20
2022-12-31T09:53:13.478Z,81.50
2022-12-31T09:56:02.995Z,79.10
2022-12-31T09:58:55.710Z,76.30
2022-12-31T10:01:38.342Z,83.70
2022-12-31T10:04:37.227Z,79.90
2022-12-31T10:07:31.028Z,73.90
2022-12-31T10:10:29.741Z,80.10
2022-12-31T10:13:21.769Z,76.40
2022-12-31T10:16:02.159Z,89.10
2022-12-31T10:19:00.524Z,82.40
2022-12-31T10:22:07.695Z,78.30
2022-12-31T10:24:50.621Z,88.30
2022-12-31T10:27:24.489Z,79.80
2022-12-31T10:30:18.872Z,89.30
2022-12-31T10:33:08.179Z,76.40
2022-12-31T10:35:39.981Z,79.30
2022-12-31T10:38:45.490Z,86.50
2022-12-31T10:41:38.265Z,87.50
2022-12-31T10:44:25.122Z,83.50
2022-12-31T10:47:18.016Z,86.80
2022-12-31T10:50:40.181Z,88.10
2022-12-31T10:53:26.233Z,85.30
2022-12-31T10:56:23.236Z,90.60
2022-12-31T10:59:30.012Z,84.40
2022-12-31T11:02:27.650Z,90.60
2022-12-31T11:05:14.348Z,90.50
2022-12-31T11:08:03.831Z,83.90
2022-12-31T11:10:42.790Z,85.20
2022-12-31T11:13:28.026Z,84.50
2022-12-31T11:16:18.489Z,82.10
2022-12-31T11:19:07.506Z,85.10
2022-12-31T11:21:50.946Z,78.60
2022-12-31T11:24:43.774Z,78.60
2022-12-31T11:27:49.866Z,76.10
2022-12-31T11:30:41.089Z,76.10
2022-12-31T11:33:30.565Z,76.20
2022-12-31T11:36:22.802Z,78.40
2022-12-31T11:38:53.899Z,72.40
2022-12-31T11:41:39.884Z,75.70
2022-12-31T11:44:26.371Z,61.60
2022-12-31T11:47:19.135Z,67.70
2022-12-31T11:50:15.776Z,75.60
2022-12-31T11:53:05.501Z,71.30
2022-12-31T11:55:51.878Z,72.50
2022-12-31T11:58:20.798Z,74.90
2022-12-31T12:00:56.856Z,78.00
2022-12-31T12:03:25.319Z,81.10
2022-12-31T12:05:55.902Z,83.70
2022-12-31T12:08:26.326Z,79.70
2022-12-31T12:11:05.277Z,89.20
2022-12-31T12:13:34.302Z,87.10
2022-12-31T12:16:06.691Z,95.90
2022-12-31T12:18:40.946Z,93.70
2022-12-31T12:21:14.110Z,97.30
2022-12-31T12:23:54.740Z,89.70
2022-12-31T12:26:38.435Z,89.30
2022-12-31T12:29:23.362Z,88.50
2022-12-31T12:32:16.195Z,88.60
2022-12-31T12:34:49.359Z,89.80
2022-12-31T12:37:24.062Z,89.90
2022-12-31T12:40:02.226Z,90.50
2022-12-31T12:42:31.222Z,87.10
2022-12-31T12:45:15.846Z,95.80
2022-12-31T12:47:45.543Z,95.60
2022-12-31T12:50:19.131Z,86.90
2022-12-31T12:53:19.853Z,83.40
2022-12-31T12:56:30.705Z,75.90
2022-12-31T12:59:19.545Z,77.60
2022-12-31T13:02:02.425Z,76.70
2022-12-31T13:04:56.217Z,74.20
2022-12-31T13:07:37.873Z,73.20
2022-12-31T13:10:12.303Z,75.40
2022-12-31T13:16:01.459Z,81.90
2022-12-31T13:18:38.769Z,81.20
2022-12-31T13:21:25.564Z,81.30
2022-12-31T13:24:24.683Z,84.20
2022-12-31T13:27:15.252Z,80.70
2022-12-31T13:29:46.720Z,71.60
2022-12-31T13:32:23.796Z,67.30
2022-12-31T13:34:56.857Z,66.00
2022-12-31T13:37:30.743Z,65.10
2022-12-31T13:40:07.617Z,62.20
2022-12-31T13:42:45.864Z,61.80
2022-12-31T13:45:22.191Z,59.40
2022-12-31T13:47:58.582Z,62.60
2022-12-31T13:50:42.451Z,74.90
2022-12-31T13:53:16.241Z,63.20
2022-12-31T13:55:57.988Z,63.40
2022-12-31T13:58:41.224Z,65.10
2022-12-31T14:01:44.876Z,63.00
2022-12-31T14:04:21.566Z,62.20
2022-12-31T14:07:10.076Z,59.40
2022-12-31T14:09:38.564Z,60.40
2022-12-31T14:12:09.558Z,59.30
2022-12-31T14:14:37.531Z,60.40
2022-12-31T14:17:28.693Z,56.50
2022-12-31T14:20:23.892Z,63.60
2022-12-31T14:23:17.494Z,68.90
2022-12-31T14:25:54.566Z,64.10
2022-12-31T14:28:35.673Z,60.60
2022-12-31T14:31:19.915Z,57.90
2022-12-31T14:33:59.257Z,62.40
2022-12-31T14:37:04.903Z,66.90
2022-12-31T14:39:41.891Z,62.40
2022-12-31T14:42:24.968Z,69.00
2022-12-31T14:45:07.042Z,66.80
2022-12-31T14:47:52.758Z,63.90
2022-12-31T14:50:29.683Z,63.70
2022-12-31T14:53:03.675Z,65.30
2022-12-31T14:55:37.307Z,67.20
2022-12-31T14:58:30.392Z,68.90
2022-12-31T15:01:22.299Z,66.00
2022-12-31T15:03:50.722Z,68.80
2022-12-31T15:06:39.343Z,70.60
2022-12-31T15:09:19.608Z,69.50
2022-12-31T15:12:26.067Z,68.70
2022-12-31T15:14:59.752Z,63.30
2022-12-31T15:18:26.138Z,60.90
2022-12-31T15:21:32.315Z,71.00
2022-12-31T15:24:00.926Z,63.40
2022-12-31T15:26:31.626Z,65.40
2022-12-31T15:29:05.263Z,68.10
2022-12-31T15:31:35.869Z,70.90
2022-12-31T15:34:07.229Z,71.40
2022-12-31T15:36:38.948Z,76.00
2022-12-31T15:39:12.919Z,75.60
2022-12-31T15:42:18.645Z,66.30
2022-12-31T15:44:55.113Z,67.60
2022-12-31T15:47:36.584Z,67.20
2022-12-31T15:50:08.429Z,50.80
2022-12-31T15:52:43.664Z,53.00
2022-12-31T15:55:49.523Z,49.70
2022-12-31T15:58:22.555Z,51.60
2022-12-31T16:01:32.373Z,51.60
2022-12-31T16:04:08.837Z,50.60
2022-12-31T16:06:38.197Z,53.00
2022-12-31T16:09:19.850Z,49.20
2022-12-31T16:11:48.273Z,54.20
2022-12-31T16:14:24.576Z,67.40
2022-12-31T16:16:55.420Z,72.20
2022-12-31T16:19:43.615Z,63.10
2022-12-31T16:22:18.017Z,51.50
2022-12-31T16:25:29.218Z,55.40
2022-12-31T16:27:42.344Z,57.20
2022-12-31T16:30:36.454Z,59.90
2022-12-31T16:33:30.386Z,58.60
2022-12-31T16:36:23.790Z,47.10
2022-12-31T16:39:28.497Z,46.90
2022-12-31T16:42:23.259Z,41.20
2022-12-31T16:45:30.221Z,42.70
2022-12-31T16:48:22.623Z,43.60
2022-12-31T16:51:19.986Z,39.80
2022-12-31T16:57:28.975Z,45.10
2022-12-31T17:00:24.803Z,43.00
2022-12-31T17:03:23.950Z,42.50
2022-12-31T17:06:19.047Z,48.40
2022-12-31T17:09:22.958Z,54.70
2022-12-31T17:12:16.651Z,52.30
2022-12-31T17:15:20.066Z,48.80
2022-12-31T17:18:22.235Z,51.10
2022-12-31T17:21:14.632Z,56.60
2022-12-31T17:24:07.376Z,59.60
2022-12-31T17:27:07.878Z,55.20
2022-12-31T17:30:28.429Z,51.40
2022-12-31T17:33:20.367Z,55.90
2022-12-31T17:36:20.453Z,57.80
2022-12-31T17:39:21.186Z,51.90
2022-12-31T17:42:20.745Z,57.50
2022-12-31T17:45:19.778Z,59.90
2022-12-31T17:48:16.771Z,67.50
2022-12-31T17:51:09.036Z,81.50
2022-12-31T17:54:02.147Z,70.40
2022-12-31T17:56:54.427Z,90.60
2022-12-31T17:59:46.608Z,88.40
2022-12-31T18:02:38.583Z,79.40
2022-12-31T18:05:30.624Z,73.80
2022-12-31T18:08:22.528Z,70.00
2022-12-31T18:11:19.904Z,69.30
2022-12-31T18:14:15.530Z,62.10
2022-12-31T18:17:15.265Z,60.90
2022-12-31T18:20:08.526Z,59.60
2022-12-31T18:23:00.867Z,62.80
2022-12-31T18:25:52.296Z,54.40
2022-12-31T18:28:45.691Z,51.60
2022-12-31T18:31:37.561Z,47.50
2022-12-31T18:34:29.752Z,46.70
2022-12-31T18:37:22.551Z,46.90
2022-12-31T18:40:14.258Z,46.80
2022-12-31T18:43:14.414Z,44.80
2022-12-31T18:46:07.338Z,48.80
2022-12-31T18:49:00.565Z,47.90
2022-12-31T18:51:54.301Z,46.60
2022-12-31T18:54:47.085Z,45.40
2022-12-31T18:57:39.453Z,44.00
2022-12-31T19:00:31.700Z,46.70
2022-12-31T19:03:24.884Z,46.50
2022-12-31T19:06:16.500Z,50.10
2022-12-31T19:09:23.736Z,47.30
2022-12-31T19:12:21.742Z,48.50
2022-12-31T19:15:19.795Z,51.30
2022-12-31T19:21:05.063Z,46.40
2022-12-31T19:23:57.391Z,48.90
2022-12-31T19:26:50.686Z,45.70
2022-12-31T19:29:42.410Z,49.00
2022-12-31T19:32:34.734Z,55.10
2022-12-31T19:35:27.657Z,56.90
2022-12-31T19:38:23.556Z,57.50
2022-12-31T19:41:18.031Z,56.10
2022-12-31T19:44:18.806Z,59.00
2022-12-31T19:47:13.504Z,63.50
2022-12-31T19:50:05.824Z,61.10
2022-12-31T19:52:58.970Z,68.70
2022-12-31T19:55:52.824Z,61.30
2022-12-31T19:58:44.731Z,64.40
2022-12-31T20:01:37.363Z,57.90
2022-12-31T20:04:29.489Z,56.40
2022-12-31T20:07:26.973Z,53.90
2022-12-31T20:10:19.275Z,60.80
2022-12-31T20:13:12.042Z,60.10
2022-12-31T20:16:10.555Z,61.40
2022-12-31T20:19:02.375Z,66.90
2022-12-31T20:21:54.686Z,57.50
2022-12-31T20:24:46.617Z,50.50
2022-12-31T20:27:38.827Z,59.90
2022-12-31T20:30:30.725Z,49.80
2022-12-31T20:33:22.956Z,53.80
2022-12-31T20:36:16.849Z,59.40
2022-12-31T20:39:08.762Z,55.00
2022-12-31T20:42:00.259Z,57.20
2022-12-31T20:44:52.564Z,59.30
2022-12-31T20:47:44.695Z,55.80
2022-12-31T20:50:36.393Z,53.60
2022-12-31T20:53:28.696Z,57.10
2022-12-31T20:56:21.471Z,57.90
2022-12-31T20:59:13.497Z,56.70
2022-12-31T21:02:20.890Z,63.60
2022-12-31T21:05:14.301Z,64.00
2022-12-31T21:08:06.563Z,66.10
2022-12-31T21:10:59.003Z,65.40
2022-12-31T21:13:51.040Z,64.70
2022-12-31T21:16:43.933Z,59.50
2022-12-31T21:19:35.433Z,58.70
2022-12-31T21:22:29.166Z,56.20
2022-12-31T21:25:21.477Z,54.70
2022-12-31T21:28:13.843Z,61.00
2022-12-31T21:31:07.829Z,61.90
2022-12-31T21:33:59.676Z,65.30
2022-12-31T21:36:51.956Z,63.10
2022-12-31T21:39:43.789Z,71.30
2022-12-31T21:42:35.829Z,75.60
2022-12-31T21:45:27.761Z,64.70
2022-12-31T21:48:19.964Z,71.00
2022-12-31T21:51:14.151Z,77.40
2022-12-31T21:54:06.604Z,80.40
2022-12-31T21:56:58.735Z,74.70
2022-12-31T22:00:40.261Z,79.30
2022-12-31T22:03:24.738Z,188.90
2022-12-31T22:06:24.174Z,225.40
2022-12-31T22:09:16.704Z,122.00
2022-12-31T22:12:09.560Z,103.00
2022-12-31T22:15:15.102Z,108.50
2022-12-31T22:18:08.846Z,119.30
2022-12-31T22:21:05.698Z,90.90
2022-12-31T22:24:00.552Z,82.00
2022-12-31T22:26:55.575Z,87.80
2022-12-31T22:29:47.567Z,83.10
2022-12-31T22:32:39.661Z,98.00
2022-12-31T22:35:31.449Z,104.40
2022-12-31T22:38:23.812Z,98.10
2022-12-31T22:41:20.236Z,88.30
2022-12-31T22:44:12.869Z,81.20
2022-12-31T22:47:04.818Z,72.50
2022-12-31T22:49:56.951Z,65.90
2022-12-31T22:52:48.824Z,65.80
2022-12-31T22:55:42.743Z,68.20
2022-12-31T22:58:35.896Z,60.80
2022-12-31T23:01:27.735Z,56.60
2022-12-31T23:04:19.916Z,62.40
2022-12-31T23:07:11.906Z,56.30
2022-12-31T23:10:22.205Z,58.50
2022-12-31T23:13:33.264Z,56.10
2022-12-31T23:16:46.686Z,57.50
2022-12-31T23:19:57.088Z,54.90
2022-12-31T23:23:07.190Z,58.50
2022-12-31T23:26:02.584Z,55.50
2022-12-31T23:28:54.804Z,62.40
2022-12-31T23:31:46.861Z,57.20
2022-12-31T23:34:38.770Z,61.90
2022-12-31T23:37:30.888Z,59.80
2022-12-31T23:40:22.966Z,60.40
2022-12-31T23:43:21.497Z,57.60
2022-12-31T23:46:15.286Z,67.00
2022-12-31T23:49:08.171Z,71.40
2022-12-31T23:52:00.860Z,57.90
2022-12-31T23:54:52.476Z,50.60
2022-12-31T23:57:44.693Z,58.80
